Latest Weather Observations for Cobar Airport

IDN60801

Issued at 6:23 pm EST Saturday 9 May 2026 (issued every 10 minutes, with the page automatically refreshed every 10 minutes)

About weather observations | Map of weather stations | Latest weather observations for NSW | Other Formats
Station Details ID: 048237 Name: COBAR AIRPORT AWS Lat: -31.54 Lon: 145.80 Height: 218.0 m
Data from the previous 72 hours. | See also: Recent months at Cobar Airport
Date/Time
EST
Temp
°C
App
Temp
°C
Dew
Point
°C
Rel
Hum
%
Delta-T
°C
Wind Press
QNH
hPa
Press
MSL
hPa
Rain since
9am
mm
Dir  Spd
km/h
Gust
km/h
Spd
kts
Gust
kts
09/06:00pm 17.2 14.0 6.7 50 5.2 SSW 13 15 7 8 1025.3 1025.2 0.0
09/05:30pm 18.7 15.4 6.5 45 6.1 SSW 13 17 7 9 1025.0 1024.9 0.0
09/05:00pm 19.7 16.5 6.8 43 6.5 S 13 19 7 10 1024.7 1024.6 0.0
09/04:30pm 20.0 16.5 7.1 43 6.6 SSW 15 22 8 12 1024.6 1024.5 0.0
09/04:00pm 20.3 17.0 6.6 41 6.9 S 13 20 7 11 1024.6 1024.5 0.0
09/03:30pm 19.8 16.7 7.2 44 6.5 SSW 13 20 7 11 1024.6 1024.5 0.0
09/03:00pm 19.6 16.5 7.4 45 6.3 SSW 13 22 7 12 1024.7 1024.6 0.0
09/02:30pm 19.8 17.2 7.9 46 6.2 SW 11 19 6 10 1024.7 1024.6 0.0
09/02:00pm 19.3 16.6 7.4 46 6.1 SW 11 20 6 11 1024.8 1024.7 0.0
09/01:30pm 19.0 16.4 7.8 48 5.8 SW 11 19 6 10 1025.1 1025.0 0.0
09/01:00pm 18.5 15.9 7.9 50 5.4 S 11 19 6 10 1025.5 1025.4 0.0
09/12:30pm 18.3 15.8 8.0 51 5.3 SSE 11 24 6 13 1025.9 1025.8 0.0
09/12:00pm 18.1 15.3 8.4 53 5.0 S 13 20 7 11 1026.5 1026.4 0.0
09/11:30am 17.5 15.1 8.6 56 4.6 SSE 11 17 6 9 1027.0 1026.9 0.0
09/11:00am 16.6 13.9 8.8 60 4.0 SSE 13 17 7 9 1027.2 1027.1 0.0
09/10:30am 15.8 13.6 9.5 66 3.3 S 11 15 6 8 1027.3 1027.2 0.0
09/10:00am 14.7 12.4 9.1 69 2.9 S 11 17 6 9 1027.4 1027.3 0.0
09/09:30am 13.7 11.9 9.4 75 2.2 S 9 11 5 6 1027.5 1027.5 0.0
09/09:00am 12.7 10.5 9.2 79 1.8 S 11 15 6 8 1027.3 1027.2 0.0
09/08:30am 11.7 11.6 9.3 85 1.2 CALM 0 0 0 0 1027.2 1027.1 0.0
09/08:00am 9.1 8.6 8.0 93 0.5 CALM 0 0 0 0 1027.0 1026.9 0.0
09/07:30am 6.8 5.8 5.7 93 0.5 CALM 0 0 0 0 1026.6 1026.5 0.0
09/07:00am 6.2 5.1 5.2 93 0.4 CALM 0 0 0 0 1026.4 1026.3 0.0
09/06:30am 6.5 5.5 5.5 93 0.4 CALM 0 0 0 0 1026.2 1026.1 0.0
09/06:00am 6.9 6.0 6.0 94 0.4 CALM 0 0 0 0 1025.8 1025.7 0.0
09/05:30am 6.7 5.7 5.5 92 0.5 CALM 0 0 0 0 1025.6 1025.5 0.0
09/05:00am 7.5 6.7 6.4 93 0.5 CALM 0 0 0 0 1025.5 1025.4 0.0
09/04:30am 7.8 7.0 6.6 92 0.6 CALM 0 0 0 0 1025.3 1025.2 0.0
09/04:00am 8.5 7.1 7.4 93 0.5 SSW 4 6 2 3 1025.3 1025.2 0.0
09/03:30am 8.4 7.7 7.0 91 0.7 CALM 0 0 0 0 1025.3 1025.2 0.0
09/03:00am 9.1 7.7 7.4 89 0.8 SSW 4 7 2 4 1025.5 1025.4 0.0
09/02:30am 10.0 9.5 7.8 86 1.1 CALM 0 0 0 0 1025.5 1025.4 0.0
09/02:00am 10.9 9.2 7.6 80 1.6 SSW 6 7 3 4 1025.6 1025.5 0.0
09/01:30am 12.2 10.5 8.3 77 1.9 SSW 7 9 4 5 1025.5 1025.4 0.0
09/01:00am 12.6 10.9 8.3 75 2.1 SSW 7 13 4 7 1025.6 1025.5 0.0
09/12:30am 13.1 10.6 8.2 72 2.5 SSW 11 15 6 8 1025.7 1025.6 0.0
09/12:00am 12.9 10.4 8.2 73 2.3 SSW 11 13 6 7 1025.7 1025.6 0.0
 
Date/Time
EST
Temp
°C
App
Temp
°C
Dew
Point
°C
Rel
Hum
%
Delta-T
°C
Wind Press
QNH
hPa
Press
MSL
hPa
Rain since
9am
mm
Dir  Spd
km/h
Gust
km/h
Spd
kts
Gust
kts
08/11:30pm 11.3 9.8 8.5 83 1.4 SSW 6 9 3 5 1025.8 1025.7 0.0
08/11:00pm 10.4 9.4 7.5 82 1.4 SSW 2 6 1 3 1026.1 1026.0 0.0
08/10:30pm 11.0 8.8 7.7 80 1.6 SW 9 9 5 5 1026.1 1026.0 0.0
08/10:00pm 11.8 9.2 7.9 77 1.9 SW 11 11 6 6 1026.2 1026.1 0.0
08/09:30pm 12.6 10.6 8.5 76 2.1 WSW 9 11 5 6 1026.1 1026.0 0.0
08/09:00pm 12.5 10.8 8.2 75 2.1 SW 7 7 4 4 1026.1 1026.0 0.0
08/08:30pm 12.3 11.8 8.0 75 2.1 CALM 0 0 0 0 1026.2 1026.1 0.0
08/08:00pm 12.2 11.6 7.5 73 2.3 CALM 0 0 0 0 1026.1 1026.0 0.0
08/07:30pm 12.2 11.5 7.1 71 2.5 CALM 0 6 0 3 1025.9 1025.8 0.0
08/07:00pm 13.1 10.7 7.1 67 2.9 SSW 9 9 5 5 1025.8 1025.7 0.0
08/06:30pm 14.3 10.8 7.1 62 3.6 SSW 15 17 8 9 1025.6 1025.5 0.0
08/06:00pm 15.1 10.3 7.2 59 3.9 SSW 22 30 12 16 1025.3 1025.2 0.0
08/05:30pm 16.0 11.7 7.7 58 4.2 SSW 20 28 11 15 1025.0 1024.9 0.0
08/05:00pm 16.9 13.2 7.8 55 4.6 SW 17 20 9 11 1024.6 1024.5 0.0
08/04:30pm 17.4 13.0 7.5 52 5.0 SW 20 33 11 18 1024.4 1024.3 0.0
08/04:00pm 17.6 13.4 7.6 52 5.1 WSW 19 32 10 17 1024.4 1024.3 0.0
08/03:30pm 17.5 13.5 8.1 54 4.8 SW 19 24 10 13 1024.4 1024.3 0.0
08/03:00pm 17.4 13.2 7.5 52 5.0 SW 19 26 10 14 1024.4 1024.3 0.0
08/02:30pm 17.1 13.0 7.7 54 4.8 SW 19 37 10 20 1024.8 1024.7 0.0
08/02:00pm 16.9 13.2 7.8 55 4.6 SW 17 26 9 14 1025.1 1025.0 0.0
08/01:30pm 16.5 12.2 8.0 57 4.3 SW 20 28 11 15 1025.5 1025.4 0.0
08/01:00pm 15.7 11.9 7.5 58 4.1 SW 17 24 9 13 1025.9 1025.8 0.0
08/12:30pm 15.0 9.3 6.8 58 4.0 SSW 26 33 14 18 1026.2 1026.1 0.0
08/12:00pm 14.9 10.1 7.5 61 3.7 SSW 22 28 12 15 1026.8 1026.7 0.0
08/11:30am 14.1 9.2 6.9 62 3.5 SSW 22 30 12 16 1027.1 1027.0 0.0
08/11:00am 13.5 8.2 6.6 63 3.3 SSW 24 30 13 16 1027.5 1027.5 0.0
08/10:30am 12.7 6.6 6.5 66 3.0 SW 28 35 15 19 1027.5 1027.5 0.0
08/10:00am 12.1 5.8 5.7 65 3.0 SSW 28 39 15 21 1027.5 1027.5 0.0
08/09:30am 11.3 6.5 5.4 67 2.7 SSW 20 28 11 15 1027.5 1027.5 0.0
08/09:00am 10.1 5.7 4.5 68 2.5 SSW 17 26 9 14 1027.3 1027.2 0.0
08/08:30am 7.9 4.8 3.8 75 1.8 WSW 9 13 5 7 1027.3 1027.2 0.0
08/08:00am 5.6 3.3 2.6 81 1.2 SSW 4 7 2 4 1027.3 1027.2 0.0
08/07:30am 4.2 2.1 1.4 82 1.1 WSW 2 7 1 4 1027.2 1027.1 0.0
08/07:00am 2.6 0.3 0.7 87 0.7 W 2 6 1 3 1026.9 1026.8 0.0
08/06:30am 3.1 0.9 0.8 85 0.9 W 2 7 1 4 1026.8 1026.7 0.0
08/06:00am 3.3 1.5 1.2 86 0.8 CALM 0 0 0 0 1026.7 1026.6 0.0
08/05:30am 3.3 0.3 0.9 84 0.9 NW 6 7 3 4 1026.6 1026.5 0.0
08/05:00am 3.0 1.2 1.4 89 0.6 CALM 0 0 0 0 1026.5 1026.4 0.0
08/04:30am 3.6 1.8 1.5 86 0.8 CALM 0 0 0 0 1026.4 1026.3 0.0
08/04:00am 3.6 1.8 1.5 86 0.8 CALM 0 4 0 2 1026.5 1026.4 0.0
08/03:30am 3.9 0.9 0.9 81 1.2 W 6 6 3 3 1026.5 1026.4 0.0
08/03:00am 3.9 2.1 1.3 83 1.0 CALM 0 0 0 0 1026.8 1026.7 0.0
08/02:30am 3.8 2.0 1.5 85 0.9 CALM 0 0 0 0 1026.8 1026.7 0.0
08/02:00am 3.7 2.0 1.7 87 0.8 CALM 0 0 0 0 1027.0 1026.9 0.0
08/01:30am 4.4 2.6 1.4 81 1.2 CALM 0 0 0 0 1027.1 1027.0 0.0
08/01:00am 4.5 2.7 1.5 81 1.2 CALM 0 0 0 0 1027.0 1026.9 0.0
08/12:30am 4.5 1.3 1.0 78 1.4 W 7 7 4 4 1027.1 1027.0 0.0
08/12:00am 5.5 2.9 0.7 71 1.9 W 4 6 2 3 1027.3 1027.2 0.0
 
Date/Time
EST
Temp
°C
App
Temp
°C
Dew
Point
°C
Rel
Hum
%
Delta-T
°C
Wind Press
QNH
hPa
Press
MSL
hPa
Rain since
9am
mm
Dir  Spd
km/h
Gust
km/h
Spd
kts
Gust
kts
07/11:30pm 4.8 1.2 0.9 76 1.5 SW 9 11 5 6 1027.3 1027.2 0.0
07/11:00pm 5.3 1.7 0.7 72 1.8 SW 9 11 5 6 1027.4 1027.3 0.0
07/10:30pm 5.5 1.9 0.9 72 1.8 SW 9 13 5 7 1027.5 1027.5 0.0
07/10:00pm 5.6 1.7 1.2 73 1.7 WSW 11 11 6 6 1027.5 1027.5 0.0
07/09:30pm 6.7 3.1 0.4 64 2.5 WSW 9 9 5 5 1027.4 1027.3 0.0
07/09:00pm 7.1 3.5 0.5 63 2.6 WSW 9 9 5 5 1027.2 1027.1 0.0
07/08:30pm 7.9 4.2 -0.1 57 3.2 WSW 9 9 5 5 1027.2 1027.1 0.0
07/08:00pm 8.8 4.7 -0.5 52 3.7 SW 11 13 6 7 1027.1 1027.0 0.0
07/07:30pm 10.1 5.5 -1.0 46 4.4 SW 13 17 7 9 1026.9 1026.8 0.0
07/07:00pm 10.9 5.5 -1.5 42 4.9 SW 17 22 9 12 1026.4 1026.3 0.0
07/06:30pm 11.4 5.4 -1.7 40 5.2 SW 20 28 11 15 1026.0 1025.9 0.0
07/06:00pm 12.1 6.0 -2.5 36 5.7 SSW 20 28 11 15 1025.4 1025.3 0.0
07/05:30pm 12.7 6.5 -3.1 33 6.2 SSW 20 28 11 15 1025.0 1024.9 0.0
07/05:00pm 13.4 6.4 -3.4 31 6.5 SW 24 30 13 16 1024.8 1024.7 0.0
07/04:30pm 14.0 6.6 -3.3 30 6.8 SSW 26 35 14 19 1024.7 1024.6 0.0
07/04:00pm 14.5 7.5 -3.3 29 7.0 SSW 24 33 13 18 1024.5 1024.4 0.0
07/03:30pm 14.3 6.2 -3.0 30 6.9 SSW 30 39 16 21 1024.4 1024.3 0.0
07/03:00pm 15.0 8.5 -2.4 30 7.0 SSW 22 35 12 19 1024.2 1024.2 0.0
07/02:30pm 14.3 5.7 -2.6 31 6.8 SSW 33 43 18 23 1024.4 1024.3 0.0
07/02:00pm 14.3 7.5 -1.7 33 6.5 SSW 24 35 13 19 1024.4 1024.3 0.0
07/01:30pm 14.3 6.1 -1.3 34 6.4 SW 32 41 17 22 1024.5 1024.4 0.0
07/01:00pm 13.7 5.9 -0.7 37 6.0 SSW 30 41 16 22 1024.6 1024.5 0.0
07/12:30pm 13.5 5.5 -2.0 34 6.2 SSW 30 43 16 23 1024.8 1024.7 0.0
07/12:00pm 13.2 4.3 -1.9 35 6.0 SSW 35 46 19 25 1025.1 1025.0 0.0
07/11:30am 13.1 4.2 -2.0 35 6.1 SW 35 46 19 25 1025.2 1025.1 0.0
07/11:00am 12.9 4.6 -1.4 37 5.8 SSW 32 43 17 23 1025.3 1025.2 0.0
07/10:30am 12.1 3.8 -1.8 38 5.5 SSW 32 46 17 25 1025.1 1025.0 0.0
07/10:00am 11.6 3.2 -0.9 42 5.0 SSW 33 46 18 25 1025.2 1025.1 0.0
07/09:42am 11.4 3.7 -0.4 44 4.8 SSW 30 48 16 26 1025.2 1025.1 0.0
07/09:30am 11.5 3.4 -0.3 44 4.8 SSW 32 44 17 24 1025.1 1025.0 0.0
07/09:00am 10.8 2.5 -0.6 45 4.6 SSW 33 44 18 24 1024.8 1024.7 0.0
07/08:30am 11.1 4.1 1.9 53 4.0 SSW 28 41 15 22 1024.1 1024.1 0.0
07/08:00am 11.0 4.5 4.5 64 2.9 SW 28 37 15 20 1023.5 1023.4 0.0
07/07:30am 10.8 4.8 6.9 77 1.9 SSW 28 43 15 23 1022.9 1022.8 0.0
07/07:00am 10.9 4.9 7.2 78 1.8 SSW 28 35 15 19 1022.5 1022.4 0.0
07/06:30am 10.7 5.4 7.0 78 1.8 SSW 24 35 13 19 1022.1 1022.0 0.0
07/06:00am 10.4 5.3 7.6 83 1.4 SSW 24 35 13 19 1021.8 1021.7 0.0
07/05:30am 9.2 4.8 7.2 87 1.0 SW 20 28 11 15 1021.4 1021.3 0.0
07/05:00am 7.3 4.4 6.4 94 0.4 SW 11 13 6 7 1020.8 1020.7 0.0
07/04:30am 6.7 5.8 6.0 95 0.3 CALM 0 0 0 0 1020.7 1020.6 0.0
07/04:00am 5.9 4.8 5.0 94 0.4 CALM 0 0 0 0 1020.6 1020.5 0.0
07/03:30am 5.7 4.5 4.8 94 0.4 CALM 0 0 0 0 1020.4 1020.3 0.0
07/03:00am 6.0 4.9 5.1 94 0.4 CALM 0 0 0 0 1020.7 1020.6 0.0
07/02:30am 6.0 4.9 5.1 94 0.4 CALM 0 0 0 0 1020.7 1020.6 0.0
07/02:00am 6.3 5.2 5.3 93 0.4 CALM 0 0 0 0 1021.1 1021.0 0.0
07/01:30am 7.2 6.4 6.3 94 0.4 CALM 0 0 0 0 1021.2 1021.1 0.0
07/01:00am 6.9 5.9 5.7 92 0.5 CALM 0 0 0 0 1021.3 1021.2 0.0
07/12:30am 7.9 7.1 6.7 92 0.6 CALM 0 0 0 0 1021.5 1021.4 0.0
07/12:00am 8.0 7.2 6.6 91 0.6 CALM 0 0 0 0 1021.6 1021.5 0.0
 
Date/Time
EST
Temp
°C
App
Temp
°C
Dew
Point
°C
Rel
Hum
%
Delta-T
°C
Wind Press
QNH
hPa
Press
MSL
hPa
Rain since
9am
mm
Dir  Spd
km/h
Gust
km/h
Spd
kts
Gust
kts
06/11:30pm 8.5 7.8 7.0 90 0.7 CALM 0 0 0 0 1021.6 1021.5 0.0
06/11:00pm 8.1 7.2 6.2 88 0.9 CALM 0 0 0 0 1021.8 1021.7 0.0
06/10:30pm 8.8 6.4 6.9 88 0.9 SW 9 11 5 6 1021.9 1021.8 0.0
06/10:00pm 9.9 7.8 6.8 81 1.5 WSW 7 9 4 5 1022.0 1021.9 0.0
06/09:30pm 10.6 8.2 6.9 78 1.8 SW 9 11 5 6 1022.1 1022.0 0.0
06/09:00pm 11.2 7.9 6.5 73 2.2 SSW 13 15 7 8 1021.9 1021.8 0.0
06/08:30pm 12.1 9.0 7.2 72 2.4 SSW 13 17 7 9 1021.8 1021.7 0.0
06/08:00pm 12.6 9.6 7.5 71 2.5 SSW 13 17 7 9 1021.6 1021.5 0.0
06/07:30pm 13.2 10.2 7.6 69 2.8 SSW 13 15 7 8 1021.4 1021.3 0.0
06/07:00pm 13.9 10.9 7.7 66 3.1 SSW 13 19 7 10 1021.2 1021.1 0.0
06/06:30pm 14.3 10.9 7.8 65 3.3 SW 15 17 8 9 1020.9 1020.8 0.0

Other formats

Comma delimited format used in spreadsheet applications
http://www.bom.gov.au/fwo/IDN60801/IDN60801.94710.axf

JavaScript Object Notation format (JSON) in row-major order
http://www.bom.gov.au/fwo/IDN60801/IDN60801.94710.json

Data quality

Most of these data are generated automatically and are frequently updated. Quality checks on data are not normally performed. It is possible for incorrect values to appear. Refer to information at About Latest Weather Observations and please check the disclaimer before using these data.